createdAt,value
2023-05-07T00:04:14.424Z,9.80
2023-05-07T00:09:17.561Z,9.68
2023-05-07T00:14:19.217Z,9.70
2023-05-07T00:19:20.964Z,9.56
2023-05-07T00:24:22.734Z,9.62
2023-05-07T00:29:24.390Z,9.48
2023-05-07T00:34:26.125Z,9.66
2023-05-07T00:39:27.760Z,9.65
2023-05-07T00:44:30.634Z,9.51
2023-05-07T00:49:46.340Z,9.42
2023-05-07T00:54:49.110Z,9.57
2023-05-07T00:59:52.602Z,9.59
2023-05-07T01:04:54.256Z,9.64
2023-05-07T01:09:56.905Z,9.52
2023-05-07T01:14:59.386Z,9.58
2023-05-07T01:20:01.280Z,9.84
2023-05-07T01:25:04.703Z,9.80
2023-05-07T01:30:08.934Z,9.53
2023-05-07T01:35:13.295Z,9.39
2023-05-07T01:40:15.522Z,9.31
2023-05-07T01:45:17.486Z,9.42
2023-05-07T01:50:20.445Z,9.65
2023-05-07T01:55:22.165Z,9.66
2023-05-07T02:00:24.308Z,9.56
2023-05-07T02:05:26.118Z,9.43
2023-05-07T02:10:34.584Z,9.63
2023-05-07T02:15:36.302Z,9.67
2023-05-07T02:20:39.296Z,9.50
2023-05-07T02:25:41.321Z,9.54
2023-05-07T02:30:43.097Z,9.83
2023-05-07T02:35:45.210Z,9.65
2023-05-07T02:40:49.375Z,9.72
2023-05-07T02:46:10.484Z,9.58
2023-05-07T02:51:21.611Z,9.54
2023-05-07T02:56:27.854Z,9.48
2023-05-07T03:01:29.815Z,9.37
2023-05-07T03:06:37.302Z,9.26
2023-05-07T03:11:40.199Z,9.33
2023-05-07T03:16:41.813Z,9.31
2023-05-07T03:21:43.524Z,9.23
2023-05-07T03:26:45.315Z,9.23
2023-05-07T03:31:47.730Z,9.16
2023-05-07T03:36:50.066Z,9.06
2023-05-07T03:41:52.054Z,9.01
2023-05-07T03:46:53.838Z,8.98
2023-05-07T03:51:56.451Z,9.24
2023-05-07T03:56:59.025Z,9.17
2023-05-07T04:02:02.963Z,9.07
2023-05-07T04:07:08.417Z,8.91
2023-05-07T04:12:16.255Z,9.01
2023-05-07T04:17:18.014Z,9.09
2023-05-07T04:22:19.721Z,9.07
2023-05-07T04:27:22.339Z,9.00
2023-05-07T04:32:25.962Z,9.14
2023-05-07T04:37:28.554Z,9.04
2023-05-07T04:42:30.662Z,9.21
2023-05-07T04:47:32.416Z,9.10
2023-05-07T04:52:35.803Z,8.89
2023-05-07T04:57:38.758Z,9.00
2023-05-07T05:02:40.591Z,8.92
2023-05-07T05:07:42.687Z,8.91
2023-05-07T05:12:45.350Z,9.14
2023-05-07T05:17:47.449Z,9.23
2023-05-07T05:22:50.367Z,9.20
2023-05-07T05:27:52.093Z,9.14
2023-05-07T05:32:53.969Z,9.22
2023-05-07T05:37:55.774Z,9.16
2023-05-07T05:42:58.524Z,9.30
2023-05-07T05:48:01.341Z,9.35
2023-05-07T05:53:04.566Z,9.36
2023-05-07T05:58:06.437Z,9.23
2023-05-07T06:03:12.013Z,9.36
2023-05-07T06:08:14.423Z,9.35
2023-05-07T06:13:16.317Z,9.35
2023-05-07T06:18:18.021Z,9.45
2023-05-07T06:23:19.719Z,9.34
2023-05-07T06:28:21.382Z,9.24
2023-05-07T06:33:23.175Z,9.29
2023-05-07T06:38:24.966Z,9.50
2023-05-07T06:43:26.792Z,9.45
2023-05-07T06:49:03.874Z,9.51
2023-05-07T06:54:17.410Z,9.47
2023-05-07T06:59:23.464Z,9.42
2023-05-07T07:04:26.362Z,9.25
2023-05-07T07:09:35.812Z,9.49
2023-05-07T07:14:39.338Z,9.46
2023-05-07T07:19:43.128Z,9.59
2023-05-07T07:24:48.671Z,9.46
2023-05-07T07:29:52.692Z,9.44
2023-05-07T07:34:54.617Z,9.33
2023-05-07T07:39:56.650Z,9.56
2023-05-07T07:44:59.471Z,9.53
2023-05-07T07:50:04.503Z,9.53
2023-05-07T07:55:06.986Z,9.51
2023-05-07T08:00:10.522Z,9.58
2023-05-07T08:05:18.315Z,9.66
2023-05-07T08:10:23.835Z,9.74
2023-05-07T08:15:33.148Z,9.64
2023-05-07T08:20:43.443Z,9.77
2023-05-07T08:25:50.534Z,9.75
2023-05-07T08:30:53.196Z,9.90
2023-05-07T08:35:55.517Z,10.03
2023-05-07T08:40:57.500Z,10.30
2023-05-07T08:46:03.371Z,10.19
2023-05-07T08:51:10.072Z,10.35
2023-05-07T08:56:13.120Z,10.37
2023-05-07T09:01:17.705Z,10.51
2023-05-07T09:06:22.963Z,10.63
2023-05-07T09:11:25.803Z,10.55
2023-05-07T09:16:31.399Z,10.11
2023-05-07T09:21:34.788Z,10.18
2023-05-07T09:26:40.480Z,10.51
2023-05-07T09:31:43.767Z,10.77
2023-05-07T09:36:49.503Z,11.17
2023-05-07T09:41:53.669Z,10.77
2023-05-07T09:47:01.774Z,10.68
2023-05-07T09:52:11.574Z,10.57
2023-05-07T09:57:21.564Z,10.73
2023-05-07T10:02:30.954Z,10.74
2023-05-07T10:07:32.815Z,10.85
2023-05-07T10:12:41.866Z,11.16
2023-05-07T10:18:03.227Z,10.83
2023-05-07T10:23:06.997Z,10.75
2023-05-07T10:28:17.937Z,11.03
2023-05-07T10:33:26.755Z,11.14
2023-05-07T10:38:29.059Z,11.33
2023-05-07T10:43:42.860Z,11.21
2023-05-07T10:49:04.339Z,11.09
2023-05-07T10:54:24.825Z,10.92
2023-05-07T10:59:44.383Z,11.36
2023-05-07T11:05:27.667Z,11.92
2023-05-07T11:10:59.283Z,12.38
2023-05-07T11:16:24.152Z,12.42
2023-05-07T11:21:32.962Z,12.17
2023-05-07T11:26:50.415Z,11.87
2023-05-07T11:31:55.807Z,12.01
2023-05-07T11:37:00.950Z,12.09
2023-05-07T11:42:38.384Z,12.18
2023-05-07T11:47:43.082Z,12.61
2023-05-07T11:52:53.568Z,12.60
2023-05-07T11:57:55.277Z,12.47
2023-05-07T12:02:57.072Z,12.40
2023-05-07T12:07:59.060Z,12.38
2023-05-07T12:13:00.748Z,12.76
2023-05-07T12:18:02.562Z,12.75
2023-05-07T12:23:04.893Z,13.08
2023-05-07T12:28:08.567Z,12.96
2023-05-07T12:33:10.529Z,12.86
2023-05-07T12:38:14.377Z,12.84
2023-05-07T12:43:20.076Z,12.88
2023-05-07T12:48:22.559Z,12.94
2023-05-07T12:53:27.804Z,12.81
2023-05-07T12:58:31.553Z,12.81
2023-05-07T13:03:35.948Z,12.91
2023-05-07T13:08:41.337Z,13.59
2023-05-07T13:13:43.214Z,13.17
2023-05-07T13:18:46.878Z,13.29
2023-05-07T13:23:48.646Z,13.03
2023-05-07T13:28:50.289Z,13.03
2023-05-07T13:33:52.022Z,13.14
2023-05-07T13:38:53.767Z,13.06
2023-05-07T13:43:55.473Z,13.02
2023-05-07T13:48:57.261Z,13.08
2023-05-07T13:53:59.570Z,12.97
2023-05-07T13:59:01.349Z,13.09
2023-05-07T14:04:03.091Z,13.19
2023-05-07T14:09:05.079Z,13.28
2023-05-07T14:14:06.771Z,13.27
2023-05-07T14:19:08.434Z,13.34
2023-05-07T14:24:10.654Z,13.19
2023-05-07T14:29:12.501Z,13.11
2023-05-07T14:34:14.199Z,13.15
2023-05-07T14:39:16.057Z,13.13
2023-05-07T14:44:17.685Z,13.45
2023-05-07T14:49:19.388Z,13.46
2023-05-07T14:54:21.172Z,13.33
2023-05-07T14:59:22.903Z,13.23
2023-05-07T15:04:25.387Z,13.11
2023-05-07T15:09:27.409Z,13.21
2023-05-07T15:14:29.049Z,13.05
2023-05-07T15:19:31.036Z,13.05
2023-05-07T15:24:32.913Z,12.95
2023-05-07T15:29:34.532Z,12.87
2023-05-07T15:34:37.546Z,12.61
2023-05-07T15:39:39.205Z,12.72
2023-05-07T15:44:41.508Z,12.68
2023-05-07T15:49:43.371Z,12.80
2023-05-07T15:54:45.074Z,12.61
2023-05-07T15:59:47.632Z,12.30
2023-05-07T16:04:49.387Z,12.20
2023-05-07T16:09:51.084Z,12.32
2023-05-07T16:14:52.728Z,12.09
2023-05-07T16:19:54.399Z,12.01
2023-05-07T16:24:56.207Z,11.89
2023-05-07T16:29:57.863Z,11.92
2023-05-07T16:34:59.554Z,11.72
2023-05-07T16:40:02.026Z,11.78
2023-05-07T16:45:07.291Z,11.68
2023-05-07T16:50:09.595Z,11.62
2023-05-07T16:55:15.792Z,11.55
2023-05-07T17:00:19.974Z,11.50
2023-05-07T17:05:21.996Z,11.50
2023-05-07T17:10:25.857Z,11.48
2023-05-07T17:15:27.439Z,11.51
2023-05-07T17:20:29.137Z,11.13
2023-05-07T17:25:32.596Z,11.14
2023-05-07T17:30:34.167Z,11.07
2023-05-07T17:35:38.963Z,10.82
2023-05-07T17:40:40.747Z,10.75
2023-05-07T17:45:45.448Z,10.64
2023-05-07T17:50:47.381Z,10.69
2023-05-07T17:55:50.477Z,10.59
2023-05-07T18:00:54.107Z,10.37
2023-05-07T18:05:55.978Z,10.37
2023-05-07T18:10:58.427Z,10.30
2023-05-07T18:16:00.274Z,10.25
2023-05-07T18:21:04.803Z,10.20
2023-05-07T18:26:08.346Z,10.07
2023-05-07T18:31:10.813Z,9.91
2023-05-07T18:36:12.546Z,9.87
2023-05-07T18:41:14.659Z,9.85
2023-05-07T18:46:16.421Z,9.89
2023-05-07T18:51:18.507Z,9.71
2023-05-07T18:56:21.652Z,9.77
2023-05-07T19:01:23.426Z,9.65
2023-05-07T19:06:25.821Z,9.66
2023-05-07T19:11:27.674Z,9.58
2023-05-07T19:16:29.544Z,9.46
2023-05-07T19:27:09.141Z,9.36
2023-05-07T19:32:11.176Z,9.13
2023-05-07T19:37:12.946Z,9.27
2023-05-07T19:42:14.673Z,9.23
2023-05-07T19:47:16.530Z,9.12
2023-05-07T19:52:18.301Z,9.02
2023-05-07T19:57:20.025Z,9.03
2023-05-07T20:02:21.713Z,8.97
2023-05-07T20:07:23.486Z,9.01
2023-05-07T20:12:25.200Z,8.94
2023-05-07T20:17:26.919Z,8.91
2023-05-07T20:22:31.941Z,8.77
2023-05-07T20:27:35.161Z,8.79
2023-05-07T20:32:36.992Z,8.58
2023-05-07T20:37:39.328Z,8.72
2023-05-07T20:42:42.567Z,8.80
2023-05-07T20:47:44.414Z,8.78
2023-05-07T20:52:46.173Z,8.88
2023-05-07T20:57:47.904Z,8.94
2023-05-07T21:02:49.834Z,8.90
2023-05-07T21:07:51.557Z,8.86
2023-05-07T21:12:53.305Z,8.83
2023-05-07T21:17:54.991Z,8.81
2023-05-07T21:22:56.787Z,8.71
2023-05-07T21:27:58.544Z,8.51
2023-05-07T21:33:00.407Z,8.46
2023-05-07T21:38:02.671Z,8.39
2023-05-07T21:43:04.750Z,8.44
2023-05-07T21:48:07.393Z,8.01
2023-05-07T21:53:09.116Z,8.03
2023-05-07T21:58:10.832Z,8.09
2023-05-07T22:03:12.548Z,8.01
2023-05-07T22:08:14.304Z,7.98
2023-05-07T22:13:16.820Z,7.88
2023-05-07T22:18:18.520Z,7.84
2023-05-07T22:23:20.260Z,7.80
2023-05-07T22:28:22.179Z,7.65
2023-05-07T22:33:23.816Z,7.53
2023-05-07T22:38:25.653Z,7.40
2023-05-07T22:43:27.404Z,7.28
2023-05-07T22:48:29.497Z,7.29
2023-05-07T22:53:31.140Z,7.44
2023-05-07T22:58:33.191Z,7.28
2023-05-07T23:03:34.828Z,7.24
2023-05-07T23:08:36.565Z,7.39
2023-05-07T23:13:38.201Z,7.53
2023-05-07T23:18:40.320Z,7.62
2023-05-07T23:23:41.968Z,7.81
2023-05-07T23:28:43.636Z,7.77
2023-05-07T23:33:45.244Z,7.53
2023-05-07T23:38:46.938Z,7.44
2023-05-07T23:43:49.177Z,7.31
2023-05-07T23:48:50.873Z,7.35
2023-05-07T23:53:52.502Z,7.16
2023-05-07T23:58:54.124Z,7.06
